Portada
METAR-TAF:

METAR-TAF

Aeroports :

Zahedan, Iran

latitud: 29-28N, longitud: 060-53E, altitud: 1370 m

Observació

L'informe es va fer fa 52 minuts, a les 22:00 UTC
Vent 4 kt del Sud
Temperatura 14°C
Humitat 26%
Pressió 1017 hPa
Visibilitat 10 km o més
sense núvols per sota de 1500 mi sense presència de cumulonimbus.

METAR: OIZH 272200Z 18004KT CAVOK 14/M05 Q1017 A3003

Hora: 02:22 (22:52 UTC)

Pronòstic

L'informe es va fer fa 5 hores i 22 minuts, a les 17:30 UTC
Pronòstic vàlid del 27 a les 18 UTC al 28 a les 24 UTC
Vent 8 kt del Nord/Nord-Est
Visibilitat: 7000 m
Temporalment
l' 28 a les 07 UTC al 28 a les 14 UTC
Vent 20 kt del Nord/Nord-Est

TAF: OIZH 271730Z 2718/2824 03008KT 7000 NSC TEMPO 2807/2814 03020KT

Observacions i pronòstics meteorològics de més de 4000 aeroports (METAR i TAF).

Les estacions disponibles són els punts grocs i vermells al mapa.

Posi el ratolí al punt desitjat per veure el nom de l'estació.

Feu clic per veure les observacions i els pronòstics meteorològics.

Per canviar el mapa: feu clic els botons verds amb una creu de color negre per apropar; al botó verd amb un guió per allunyar la imatge; o en les fletxes verdes per a mapes adjacents.


METAR-TAF: